sensor_id;sensor_type;location;lat;lon;timestamp;pressure;altitude;pressure_sealevel;temperature;humidity
14295;BME280;7231;59.370;18.016;2022-08-01T00:01:29;101074.44;;;17.52;71.30
14295;BME280;7231;59.370;18.016;2022-08-01T00:04:00;101062.06;;;17.50;71.33
14295;BME280;7231;59.370;18.016;2022-08-01T00:06:28;101054.97;;;17.40;71.79
14295;BME280;7231;59.370;18.016;2022-08-01T00:08:56;101064.72;;;17.47;72.07
14295;BME280;7231;59.370;18.016;2022-08-01T00:11:24;101011.56;;;17.09;72.52
14295;BME280;7231;59.370;18.016;2022-08-01T00:13:53;101065.56;;;17.40;72.84
14295;BME280;7231;59.370;18.016;2022-08-01T00:16:23;101064.69;;;17.38;73.31
14295;BME280;7231;59.370;18.016;2022-08-01T00:18:52;101055.84;;;17.36;73.55
14295;BME280;7231;59.370;18.016;2022-08-01T00:21:21;101052.28;;;17.34;73.63
14295;BME280;7231;59.370;18.016;2022-08-01T00:23:49;101055.81;;;17.33;73.98
14295;BME280;7231;59.370;18.016;2022-08-01T00:26:20;101059.34;;;17.29;74.60
14295;BME280;7231;59.370;18.016;2022-08-01T00:28:48;101053.16;;;17.27;74.83
14295;BME280;7231;59.370;18.016;2022-08-01T00:31:16;101052.25;;;17.25;75.19
14295;BME280;7231;59.370;18.016;2022-08-01T00:33:46;101043.38;;;17.16;75.34
14295;BME280;7231;59.370;18.016;2022-08-01T00:36:16;101038.97;;;17.14;75.51
14295;BME280;7231;59.370;18.016;2022-08-01T00:38:44;101005.31;;;16.95;75.90
14295;BME280;7231;59.370;18.016;2022-08-01T00:41:12;101055.75;;;17.19;76.05
14295;BME280;7231;59.370;18.016;2022-08-01T00:43:40;101054.00;;;17.19;76.26
14295;BME280;7231;59.370;18.016;2022-08-01T00:46:08;101052.22;;;17.17;76.69
14295;BME280;7231;59.370;18.016;2022-08-01T00:48:36;101050.44;;;17.16;77.07
14295;BME280;7231;59.370;18.016;2022-08-01T00:51:05;101002.63;;;16.85;77.27
14295;BME280;7231;59.370;18.016;2022-08-01T00:53:34;101051.31;;;17.12;77.70
14295;BME280;7231;59.370;18.016;2022-08-01T00:56:19;101047.78;;;17.11;77.81
14295;BME280;7231;59.370;18.016;2022-08-01T00:58:47;101040.72;;;17.12;78.08
14295;BME280;7231;59.370;18.016;2022-08-01T01:01:16;101038.06;;;17.12;78.02
14295;BME280;7231;59.370;18.016;2022-08-01T01:03:44;101038.94;;;17.11;78.09
14295;BME280;7231;59.370;18.016;2022-08-01T01:06:41;101005.31;;;16.95;78.71
14295;BME280;7231;59.370;18.016;2022-08-01T01:09:25;101034.50;;;17.07;78.84
14295;BME280;7231;59.370;18.016;2022-08-01T01:12:03;101033.63;;;17.06;78.68
14295;BME280;7231;59.370;18.016;2022-08-01T01:14:38;101032.72;;;17.04;78.79
14295;BME280;7231;59.370;18.016;2022-08-01T01:17:11;101031.84;;;17.01;78.82
14295;BME280;7231;59.370;18.016;2022-08-01T01:19:45;101025.66;;;17.00;79.05
14295;BME280;7231;59.370;18.016;2022-08-01T01:22:22;101036.25;;;17.00;79.36
14295;BME280;7231;59.370;18.016;2022-08-01T01:25:08;100990.19;;;16.74;79.75
14295;BME280;7231;59.370;18.016;2022-08-01T01:27:45;101029.16;;;16.95;79.61
14295;BME280;7231;59.370;18.016;2022-08-01T01:30:18;100985.78;;;16.73;79.48
14295;BME280;7231;59.370;18.016;2022-08-01T01:32:48;101027.38;;;16.95;79.79
14295;BME280;7231;59.370;18.016;2022-08-01T01:35:21;101027.38;;;16.95;79.79
14295;BME280;7231;59.370;18.016;2022-08-01T01:38:04;101025.63;;;16.94;80.18
14295;BME280;7231;59.370;18.016;2022-08-01T01:40:33;101019.44;;;16.94;79.79
14295;BME280;7231;59.370;18.016;2022-08-01T01:43:01;101004.38;;;16.83;79.93
14295;BME280;7231;59.370;18.016;2022-08-01T01:45:31;101013.25;;;16.93;80.09
14295;BME280;7231;59.370;18.016;2022-08-01T01:48:00;100980.50;;;16.73;80.04
14295;BME280;7231;59.370;18.016;2022-08-01T01:50:29;100992.00;;;16.82;80.22
14295;BME280;7231;59.370;18.016;2022-08-01T01:52:59;101012.34;;;16.90;80.25
14295;BME280;7231;59.370;18.016;2022-08-01T01:55:30;100971.63;;;16.66;80.38
14295;BME280;7231;59.370;18.016;2022-08-01T01:58:15;101003.50;;;16.86;80.56
14295;BME280;7231;59.370;18.016;2022-08-01T02:00:46;101010.56;;;16.87;80.77
14295;BME280;7231;59.370;18.016;2022-08-01T02:03:17;101005.28;;;16.87;80.92
14295;BME280;7231;59.370;18.016;2022-08-01T02:05:47;101000.88;;;16.87;80.73
14295;BME280;7231;59.370;18.016;2022-08-01T02:08:16;101007.06;;;16.90;80.86
14295;BME280;7231;59.370;18.016;2022-08-01T02:10:45;100999.09;;;16.90;80.88
14295;BME280;7231;59.370;18.016;2022-08-01T02:13:37;101000.00;;;16.92;80.98
14295;BME280;7231;59.370;18.016;2022-08-01T02:16:08;101000.88;;;16.92;81.33
14295;BME280;7231;59.370;18.016;2022-08-01T02:18:38;101001.75;;;16.91;81.16
14295;BME280;7231;59.370;18.016;2022-08-01T02:21:08;100999.13;;;16.91;81.57
14295;BME280;7231;59.370;18.016;2022-08-01T02:23:39;101001.78;;;16.93;81.43
14295;BME280;7231;59.370;18.016;2022-08-01T02:26:10;101000.00;;;16.93;81.55
14295;BME280;7231;59.370;18.016;2022-08-01T02:28:45;100997.34;;;16.93;81.80
14295;BME280;7231;59.370;18.016;2022-08-01T02:31:19;100990.28;;;16.92;82.00
14295;BME280;7231;59.370;18.016;2022-08-01T02:33:54;100992.94;;;16.94;81.86
14295;BME280;7231;59.370;18.016;2022-08-01T02:36:25;100991.19;;;16.93;81.75
14295;BME280;7231;59.370;18.016;2022-08-01T02:39:00;100988.53;;;16.94;82.09
14295;BME280;7231;59.370;18.016;2022-08-01T02:41:30;100987.66;;;16.95;81.86
14295;BME280;7231;59.370;18.016;2022-08-01T02:44:01;100979.69;;;16.91;81.88
14295;BME280;7231;59.370;18.016;2022-08-01T02:46:35;100988.56;;;16.99;82.16
14295;BME280;7231;59.370;18.016;2022-08-01T02:49:06;100985.03;;;17.00;82.03
14295;BME280;7231;59.370;18.016;2022-08-01T02:51:36;100979.72;;;16.98;81.99
14295;BME280;7231;59.370;18.016;2022-08-01T02:54:07;100962.91;;;16.85;82.39
14295;BME280;7231;59.370;18.016;2022-08-01T02:56:38;100908.00;;;16.57;82.14
14295;BME280;7231;59.370;18.016;2022-08-01T02:59:09;100985.03;;;16.98;82.31
14295;BME280;7231;59.370;18.016;2022-08-01T03:01:42;100980.63;;;17.00;82.38
14295;BME280;7231;59.370;18.016;2022-08-01T03:04:12;100981.50;;;17.01;82.38
14295;BME280;7231;59.370;18.016;2022-08-01T03:06:40;100970.91;;;17.01;82.45
14295;BME280;7231;59.370;18.016;2022-08-01T03:09:11;100968.25;;;17.01;82.52
14295;BME280;7231;59.370;18.016;2022-08-01T03:11:42;100971.78;;;17.01;82.74
14295;BME280;7231;59.370;18.016;2022-08-01T03:14:12;100974.44;;;17.01;83.01
14295;BME280;7231;59.370;18.016;2022-08-01T03:16:44;100982.38;;;17.01;83.17
14295;BME280;7231;59.370;18.016;2022-08-01T03:19:14;100974.44;;;17.01;83.14
14295;BME280;7231;59.370;18.016;2022-08-01T03:21:44;100973.56;;;17.02;83.12
14295;BME280;7231;59.370;18.016;2022-08-01T03:24:13;100975.31;;;17.03;83.35
14295;BME280;7231;59.370;18.016;2022-08-01T03:26:43;100970.03;;;17.03;83.64
14295;BME280;7231;59.370;18.016;2022-08-01T03:29:15;100971.78;;;17.03;83.77
14295;BME280;7231;59.370;18.016;2022-08-01T03:31:47;100969.16;;;17.04;83.96
14295;BME280;7231;59.370;18.016;2022-08-01T03:34:17;100967.41;;;17.06;84.00
14295;BME280;7231;59.370;18.016;2022-08-01T03:36:49;100963.84;;;17.07;83.97
14295;BME280;7231;59.370;18.016;2022-08-01T03:39:25;100938.22;;;16.96;84.05
14295;BME280;7231;59.370;18.016;2022-08-01T03:41:57;100955.03;;;17.05;84.10
14295;BME280;7231;59.370;18.016;2022-08-01T03:44:27;100960.34;;;17.10;84.38
14295;BME280;7231;59.370;18.016;2022-08-01T03:47:04;100969.16;;;17.10;84.45
14295;BME280;7231;59.370;18.016;2022-08-01T03:49:37;100965.66;;;17.11;84.58
14295;BME280;7231;59.370;18.016;2022-08-01T03:52:08;100964.78;;;17.14;84.73
14295;BME280;7231;59.370;18.016;2022-08-01T03:54:40;100956.81;;;17.15;84.93
14295;BME280;7231;59.370;18.016;2022-08-01T03:57:09;100964.78;;;17.18;84.75
14295;BME280;7231;59.370;18.016;2022-08-01T03:59:58;100956.84;;;17.22;84.71
14295;BME280;7231;59.370;18.016;2022-08-01T04:02:28;100964.81;;;17.25;84.89
14295;BME280;7231;59.370;18.016;2022-08-01T04:04:59;100956.84;;;17.25;85.13
14295;BME280;7231;59.370;18.016;2022-08-01T04:07:29;100963.03;;;17.28;85.27
14295;BME280;7231;59.370;18.016;2022-08-01T04:09:58;100955.09;;;17.27;85.32
14295;BME280;7231;59.370;18.016;2022-08-01T04:12:26;100963.06;;;17.34;85.25
14295;BME280;7231;59.370;18.016;2022-08-01T04:14:54;100966.59;;;17.39;85.27
14295;BME280;7231;59.370;18.016;2022-08-01T04:17:22;100960.44;;;17.45;85.34
14295;BME280;7231;59.370;18.016;2022-08-01T04:19:51;100960.44;;;17.51;85.37
14295;BME280;7231;59.370;18.016;2022-08-01T04:22:19;100956.91;;;17.55;85.31
14295;BME280;7231;59.370;18.016;2022-08-01T04:24:49;100933.94;;;17.48;85.21
14295;BME280;7231;59.370;18.016;2022-08-01T04:27:26;100953.38;;;17.64;85.13
14295;BME280;7231;59.370;18.016;2022-08-01T04:30:18;100957.84;;;17.71;84.84
14295;BME280;7231;59.370;18.016;2022-08-01T04:32:47;100955.19;;;17.75;84.78
14295;BME280;7231;59.370;18.016;2022-08-01T04:35:20;100955.19;;;17.81;84.86
14295;BME280;7231;59.370;18.016;2022-08-01T04:38:10;100945.47;;;17.83;84.38
14295;BME280;7231;59.370;18.016;2022-08-01T04:40:40;100953.44;;;17.96;84.00
14295;BME280;7231;59.370;18.016;2022-08-01T04:43:09;100947.25;;;18.01;83.66
14295;BME280;7231;59.370;18.016;2022-08-01T04:45:37;100947.22;;;18.09;83.23
14295;BME280;7231;59.370;18.016;2022-08-01T04:48:06;100947.22;;;18.16;82.76
14295;BME280;7231;59.370;18.016;2022-08-01T04:50:36;100941.00;;;18.24;82.63
14295;BME280;7231;59.370;18.016;2022-08-01T04:53:04;100912.72;;;18.18;82.21
14295;BME280;7231;59.370;18.016;2022-08-01T04:55:32;100935.66;;;18.37;81.78
14295;BME280;7231;59.370;18.016;2022-08-01T04:58:02;100924.16;;;18.31;81.32
14295;BME280;7231;59.370;18.016;2022-08-01T05:00:30;100935.63;;;18.48;80.61
14295;BME280;7231;59.370;18.016;2022-08-01T05:03:00;100936.47;;;18.58;80.42
14295;BME280;7231;59.370;18.016;2022-08-01T05:05:28;100938.25;;;18.65;79.79
14295;BME280;7231;59.370;18.016;2022-08-01T05:07:58;100932.94;;;18.71;79.14
14295;BME280;7231;59.370;18.016;2022-08-01T05:10:27;100939.09;;;18.77;78.72
14295;BME280;7231;59.370;18.016;2022-08-01T05:12:55;100937.31;;;18.84;78.10
14295;BME280;7231;59.370;18.016;2022-08-01T05:15:23;100913.41;;;18.78;77.40
14295;BME280;7231;59.370;18.016;2022-08-01T05:17:51;100931.06;;;18.93;76.70
14295;BME280;7231;59.370;18.016;2022-08-01T05:20:19;100928.38;;;18.97;76.22
14295;BME280;7231;59.370;18.016;2022-08-01T05:22:47;100928.34;;;19.03;75.33
14295;BME280;7231;59.370;18.016;2022-08-01T05:25:17;100935.41;;;19.09;74.36
14295;BME280;7231;59.370;18.016;2022-08-01T05:28:05;100891.22;;;18.91;73.74
14295;BME280;7231;59.370;18.016;2022-08-01T05:30:34;100927.41;;;19.17;73.15
14295;BME280;7231;59.370;18.016;2022-08-01T05:33:02;100925.59;;;19.23;72.79
14295;BME280;7231;59.370;18.016;2022-08-01T05:35:29;100940.59;;;19.30;72.43
14295;BME280;7231;59.370;18.016;2022-08-01T05:38:14;100914.03;;;19.30;72.18
14295;BME280;7231;59.370;18.016;2022-08-01T05:40:44;100920.13;;;19.43;71.59
14295;BME280;7231;59.370;18.016;2022-08-01T05:43:12;100919.22;;;19.49;71.28
14295;BME280;7231;59.370;18.016;2022-08-01T05:45:40;100881.22;;;19.33;70.99
14295;BME280;7231;59.370;18.016;2022-08-01T05:48:08;100899.69;;;19.50;70.90
14295;BME280;7231;59.370;18.016;2022-08-01T05:50:37;100901.47;;;19.54;70.80
14295;BME280;7231;59.370;18.016;2022-08-01T05:53:05;100900.53;;;19.59;70.72
14295;BME280;7231;59.370;18.016;2022-08-01T05:55:33;100918.25;;;19.65;70.60
14295;BME280;7231;59.370;18.016;2022-08-01T05:58:03;100917.34;;;19.67;70.29
14295;BME280;7231;59.370;18.016;2022-08-01T06:00:31;100919.09;;;19.70;70.22
14295;BME280;7231;59.370;18.016;2022-08-01T06:02:59;100917.28;;;19.73;69.92
14295;BME280;7231;59.370;18.016;2022-08-01T06:05:27;100909.28;;;19.76;69.86
14295;BME280;7231;59.370;18.016;2022-08-01T06:07:55;100918.09;;;19.82;69.56
14295;BME280;7231;59.370;18.016;2022-08-01T06:10:25;100911.88;;;19.84;69.16
14295;BME280;7231;59.370;18.016;2022-08-01T06:12:53;100902.97;;;19.88;69.09
14295;BME280;7231;59.370;18.016;2022-08-01T06:15:22;100897.59;;;19.93;69.00
14295;BME280;7231;59.370;18.016;2022-08-01T06:17:50;100901.91;;;20.04;68.28
14295;BME280;7231;59.370;18.016;2022-08-01T06:20:18;100894.78;;;20.09;67.64
14295;BME280;7231;59.370;18.016;2022-08-01T06:22:46;100897.31;;;20.20;67.31
14295;BME280;7231;59.370;18.016;2022-08-01T06:25:18;100897.25;;;20.28;66.65
14295;BME280;7231;59.370;18.016;2022-08-01T06:27:47;100898.09;;;20.31;66.40
14295;BME280;7231;59.370;18.016;2022-08-01T06:30:16;100897.19;;;20.32;66.01
14295;BME280;7231;59.370;18.016;2022-08-01T06:32:45;100841.53;;;20.08;65.26
14295;BME280;7231;59.370;18.016;2022-08-01T06:35:14;100901.56;;;20.42;64.95
14295;BME280;7231;59.370;18.016;2022-08-01T06:37:42;100895.25;;;20.50;64.33
14295;BME280;7231;59.370;18.016;2022-08-01T06:40:12;100891.63;;;20.55;63.74
14295;BME280;7231;59.370;18.016;2022-08-01T06:42:43;100891.53;;;20.63;63.41
14295;BME280;7231;59.370;18.016;2022-08-01T06:45:13;100875.59;;;20.60;63.29
14295;BME280;7231;59.370;18.016;2022-08-01T06:47:42;100889.53;;;20.80;62.91
14295;BME280;7231;59.370;18.016;2022-08-01T06:50:15;100893.84;;;20.89;62.69
14295;BME280;7231;59.370;18.016;2022-08-01T06:52:44;100892.81;;;20.99;62.56
14295;BME280;7231;59.370;18.016;2022-08-01T06:55:12;100877.75;;;20.95;61.01
14295;BME280;7231;59.370;18.016;2022-08-01T06:57:45;100887.41;;;21.03;60.42
14295;BME280;7231;59.370;18.016;2022-08-01T07:00:14;100892.75;;;21.03;60.21
14295;BME280;7231;59.370;18.016;2022-08-01T07:02:45;100890.94;;;21.05;59.12
14295;BME280;7231;59.370;18.016;2022-08-01T07:05:13;100895.41;;;21.03;58.76
14295;BME280;7231;59.370;18.016;2022-08-01T07:07:42;100898.03;;;21.06;58.72
14295;BME280;7231;59.370;18.016;2022-08-01T07:10:10;100899.88;;;21.03;58.46
14295;BME280;7231;59.370;18.016;2022-08-01T07:12:38;100893.66;;;21.02;58.44
14295;BME280;7231;59.370;18.016;2022-08-01T07:15:09;100898.84;;;21.12;58.46
14295;BME280;7231;59.370;18.016;2022-08-01T07:17:38;100889.00;;;21.17;57.79
14295;BME280;7231;59.370;18.016;2022-08-01T07:20:07;100893.34;;;21.25;58.17
14295;BME280;7231;59.370;18.016;2022-08-01T07:22:36;100892.34;;;21.32;57.79
14295;BME280;7231;59.370;18.016;2022-08-01T07:25:07;100865.78;;;21.26;57.19
14295;BME280;7231;59.370;18.016;2022-08-01T07:27:35;100879.06;;;21.29;56.66
14295;BME280;7231;59.370;18.016;2022-08-01T07:30:05;100879.81;;;21.39;56.69
14295;BME280;7231;59.370;18.016;2022-08-01T07:32:33;100803.88;;;21.03;56.78
14295;BME280;7231;59.370;18.016;2022-08-01T07:35:01;100885.63;;;21.64;56.61
14295;BME280;7231;59.370;18.016;2022-08-01T07:37:29;100882.63;;;21.84;56.39
14295;BME280;7231;59.370;18.016;2022-08-01T07:40:16;100884.97;;;22.03;55.96
14295;BME280;7231;59.370;18.016;2022-08-01T07:42:45;100882.19;;;22.10;55.75
14295;BME280;7231;59.370;18.016;2022-08-01T07:45:13;100880.16;;;22.22;55.92
14295;BME280;7231;59.370;18.016;2022-08-01T07:47:41;100878.84;;;22.45;55.69
14295;BME280;7231;59.370;18.016;2022-08-01T07:50:10;100873.88;;;22.68;56.00
14295;BME280;7231;59.370;18.016;2022-08-01T07:52:39;100832.00;;;22.68;54.97
14295;BME280;7231;59.370;18.016;2022-08-01T07:55:09;100857.88;;;23.08;55.16
14295;BME280;7231;59.370;18.016;2022-08-01T07:57:43;100868.47;;;23.48;54.28
14295;BME280;7231;59.370;18.016;2022-08-01T08:00:12;100849.47;;;23.60;53.85
14295;BME280;7231;59.370;18.016;2022-08-01T08:02:40;100868.41;;;23.87;53.29
14295;BME280;7231;59.370;18.016;2022-08-01T08:05:09;100866.28;;;24.00;52.71
14295;BME280;7231;59.370;18.016;2022-08-01T08:07:38;100867.88;;;24.07;51.95
14295;BME280;7231;59.370;18.016;2022-08-01T08:10:06;100858.97;;;24.06;51.62
14295;BME280;7231;59.370;18.016;2022-08-01T08:12:34;100858.06;;;24.07;51.34
14295;BME280;7231;59.370;18.016;2022-08-01T08:15:04;100858.69;;;24.17;51.19
14295;BME280;7231;59.370;18.016;2022-08-01T08:17:33;100849.41;;;24.30;51.37
14295;BME280;7231;59.370;18.016;2022-08-01T08:20:03;100828.19;;;24.21;51.09
14295;BME280;7231;59.370;18.016;2022-08-01T08:22:35;100851.75;;;24.42;50.79
14295;BME280;7231;59.370;18.016;2022-08-01T08:25:04;100852.25;;;24.55;49.61
14295;BME280;7231;59.370;18.016;2022-08-01T08:27:33;100850.31;;;24.60;49.55
14295;BME280;7231;59.370;18.016;2022-08-01T08:30:06;100856.75;;;24.54;48.16
14295;BME280;7231;59.370;18.016;2022-08-01T08:32:35;100868.03;;;24.35;47.92
14295;BME280;7231;59.370;18.016;2022-08-01T08:35:04;100846.25;;;24.14;48.01
14295;BME280;7231;59.370;18.016;2022-08-01T08:37:33;100857.84;;;24.15;47.97
14295;BME280;7231;59.370;18.016;2022-08-01T08:40:09;100865.78;;;24.18;48.47
14295;BME280;7231;59.370;18.016;2022-08-01T08:42:39;100855.91;;;24.20;48.38
14295;BME280;7231;59.370;18.016;2022-08-01T08:45:10;100853.81;;;24.33;48.42
14295;BME280;7231;59.370;18.016;2022-08-01T08:47:39;100837.56;;;24.39;48.29
14295;BME280;7231;59.370;18.016;2022-08-01T08:50:09;100844.81;;;24.65;48.38
14295;BME280;7231;59.370;18.016;2022-08-01T08:52:38;100849.25;;;24.97;48.13
14295;BME280;7231;59.370;18.016;2022-08-01T08:55:08;100842.03;;;25.27;47.72
14295;BME280;7231;59.370;18.016;2022-08-01T08:57:39;100846.34;;;25.85;47.97
14295;BME280;7231;59.370;18.016;2022-08-01T09:00:10;100818.06;;;26.23;47.41
14295;BME280;7231;59.370;18.016;2022-08-01T09:02:41;100819.56;;;26.32;45.21
14295;BME280;7231;59.370;18.016;2022-08-01T09:05:09;100841.63;;;26.65;44.84
14295;BME280;7231;59.370;18.016;2022-08-01T09:07:43;100831.19;;;27.02;43.38
14295;BME280;7231;59.370;18.016;2022-08-01T09:10:11;100834.06;;;27.41;42.31
14295;BME280;7231;59.370;18.016;2022-08-01T09:12:38;100834.94;;;27.42;41.00
14295;BME280;7231;59.370;18.016;2022-08-01T09:15:09;100828.75;;;27.62;42.04
14295;BME280;7231;59.370;18.016;2022-08-01T09:17:40;100828.44;;;28.10;40.00
14295;BME280;7231;59.370;18.016;2022-08-01T09:20:22;100817.31;;;28.18;40.42
14295;BME280;7231;59.370;18.016;2022-08-01T09:22:50;100826.00;;;28.44;40.07
14295;BME280;7231;59.370;18.016;2022-08-01T09:25:18;100821.25;;;28.50;40.59
14295;BME280;7231;59.370;18.016;2022-08-01T09:28:02;100802.25;;;28.53;39.29
14295;BME280;7231;59.370;18.016;2022-08-01T09:30:38;100822.22;;;28.49;39.13
14295;BME280;7231;59.370;18.016;2022-08-01T09:33:09;100811.66;;;27.83;39.57
14295;BME280;7231;59.370;18.016;2022-08-01T09:35:54;100828.03;;;27.57;39.77
14295;BME280;7231;59.370;18.016;2022-08-01T09:38:24;100822.69;;;27.13;40.04
14295;BME280;7231;59.370;18.016;2022-08-01T09:40:56;100819.44;;;26.81;40.18
14295;BME280;7231;59.370;18.016;2022-08-01T09:43:25;100822.94;;;26.83;41.11
14295;BME280;7231;59.370;18.016;2022-08-01T09:45:56;100814.59;;;26.68;40.72
14295;BME280;7231;59.370;18.016;2022-08-01T09:48:25;100823.50;;;26.46;40.90
14295;BME280;7231;59.370;18.016;2022-08-01T09:50:56;100817.63;;;26.10;41.03
14295;BME280;7231;59.370;18.016;2022-08-01T09:53:43;100811.41;;;25.85;41.70
14295;BME280;7231;59.370;18.016;2022-08-01T09:56:19;100811.91;;;25.96;41.65
14295;BME280;7231;59.370;18.016;2022-08-01T09:58:53;100812.59;;;26.01;42.13
14295;BME280;7231;59.370;18.016;2022-08-01T10:01:29;100814.13;;;26.33;41.69
14295;BME280;7231;59.370;18.016;2022-08-01T10:04:10;100809.41;;;26.40;41.97
14295;BME280;7231;59.370;18.016;2022-08-01T10:06:41;100798.00;;;26.57;42.43
14295;BME280;7231;59.370;18.016;2022-08-01T10:09:12;100786.00;;;26.65;41.69
14295;BME280;7231;59.370;18.016;2022-08-01T10:11:42;100792.56;;;26.58;41.43
14295;BME280;7231;59.370;18.016;2022-08-01T10:14:11;100789.06;;;26.56;41.06
14295;BME280;7231;59.370;18.016;2022-08-01T10:16:45;100806.00;;;26.35;40.85
14295;BME280;7231;59.370;18.016;2022-08-01T10:19:22;100778.31;;;25.84;41.59
14295;BME280;7231;59.370;18.016;2022-08-01T10:21:54;100788.94;;;25.87;41.90
14295;BME280;7231;59.370;18.016;2022-08-01T10:24:28;100795.78;;;25.96;41.40
14295;BME280;7231;59.370;18.016;2022-08-01T10:26:58;100789.81;;;25.88;41.93
14295;BME280;7231;59.370;18.016;2022-08-01T10:29:40;100792.28;;;25.69;41.84
14295;BME280;7231;59.370;18.016;2022-08-01T10:32:30;100763.56;;;25.45;41.85
14295;BME280;7231;59.370;18.016;2022-08-01T10:35:02;100785.22;;;25.67;41.77
14295;BME280;7231;59.370;18.016;2022-08-01T10:37:33;100777.97;;;25.69;42.37
14295;BME280;7231;59.370;18.016;2022-08-01T10:40:19;100786.50;;;26.05;42.46
14295;BME280;7231;59.370;18.016;2022-08-01T10:42:57;100791.56;;;26.37;42.12
14295;BME280;7231;59.370;18.016;2022-08-01T10:45:26;100779.41;;;26.50;41.59
14295;BME280;7231;59.370;18.016;2022-08-01T10:48:05;100773.03;;;26.53;41.75
14295;BME280;7231;59.370;18.016;2022-08-01T10:50:39;100788.25;;;26.99;41.60
14295;BME280;7231;59.370;18.016;2022-08-01T10:53:11;100738.66;;;26.83;40.11
14295;BME280;7231;59.370;18.016;2022-08-01T10:55:58;100781.75;;;27.05;39.69
14295;BME280;7231;59.370;18.016;2022-08-01T10:58:30;100775.28;;;26.87;39.79
14295;BME280;7231;59.370;18.016;2022-08-01T11:01:17;100699.63;;;26.28;39.00
14295;BME280;7231;59.370;18.016;2022-08-01T11:04:07;100775.56;;;26.79;39.99
14295;BME280;7231;59.370;18.016;2022-08-01T11:06:49;100742.59;;;26.52;39.64
14295;BME280;7231;59.370;18.016;2022-08-01T11:09:30;100767.56;;;26.31;40.36
14295;BME280;7231;59.370;18.016;2022-08-01T11:12:08;100778.91;;;26.16;39.95
14295;BME280;7231;59.370;18.016;2022-08-01T11:15:17;100777.97;;;25.94;40.00
14295;BME280;7231;59.370;18.016;2022-08-01T11:17:59;100771.03;;;25.62;40.46
14295;BME280;7231;59.370;18.016;2022-08-01T11:20:31;100775.94;;;25.49;41.01
14295;BME280;7231;59.370;18.016;2022-08-01T11:23:26;100771.34;;;25.52;40.69
14295;BME280;7231;59.370;18.016;2022-08-01T11:26:19;100772.84;;;25.61;41.00
14295;BME280;7231;59.370;18.016;2022-08-01T11:29:19;100768.72;;;25.51;40.33
14295;BME280;7231;59.370;18.016;2022-08-01T11:31:49;100774.81;;;25.30;41.24
14295;BME280;7231;59.370;18.016;2022-08-01T11:34:18;100763.03;;;25.07;41.69
14295;BME280;7231;59.370;18.016;2022-08-01T11:36:48;100771.59;;;24.90;41.83
14295;BME280;7231;59.370;18.016;2022-08-01T11:39:26;100783.09;;;24.66;42.65
14295;BME280;7231;59.370;18.016;2022-08-01T11:41:55;100781.16;;;24.42;42.67
14295;BME280;7231;59.370;18.016;2022-08-01T11:44:48;100718.31;;;23.60;43.99
14295;BME280;7231;59.370;18.016;2022-08-01T11:47:16;100782.47;;;23.63;44.89
14295;BME280;7231;59.370;18.016;2022-08-01T11:49:48;100790.22;;;23.40;45.41
14295;BME280;7231;59.370;18.016;2022-08-01T11:52:27;100788.63;;;23.33;45.56
14295;BME280;7231;59.370;18.016;2022-08-01T11:54:57;100788.81;;;23.25;45.88
14295;BME280;7231;59.370;18.016;2022-08-01T11:57:26;100740.41;;;22.99;46.03
14295;BME280;7231;59.370;18.016;2022-08-01T12:00:02;100781.44;;;23.35;46.34
14295;BME280;7231;59.370;18.016;2022-08-01T12:02:34;100784.44;;;23.57;46.86
14295;BME280;7231;59.370;18.016;2022-08-01T12:05:05;100784.78;;;23.77;46.06
14295;BME280;7231;59.370;18.016;2022-08-01T12:07:40;100786.16;;;23.59;45.81
14295;BME280;7231;59.370;18.016;2022-08-01T12:10:10;100789.25;;;23.41;45.41
14295;BME280;7231;59.370;18.016;2022-08-01T12:12:43;100793.56;;;23.13;45.72
14295;BME280;7231;59.370;18.016;2022-08-01T12:15:13;100796.69;;;22.94;45.63
14295;BME280;7231;59.370;18.016;2022-08-01T12:17:43;100796.88;;;22.87;46.18
14295;BME280;7231;59.370;18.016;2022-08-01T12:20:27;100728.16;;;22.52;45.95
14295;BME280;7231;59.370;18.016;2022-08-01T12:23:05;100789.50;;;22.96;46.18
14295;BME280;7231;59.370;18.016;2022-08-01T12:25:34;100796.47;;;23.04;45.80
14295;BME280;7231;59.370;18.016;2022-08-01T12:28:04;100791.13;;;23.04;45.72
14295;BME280;7231;59.370;18.016;2022-08-01T12:30:33;100798.94;;;23.13;45.49
14295;BME280;7231;59.370;18.016;2022-08-01T12:33:03;100789.75;;;23.23;45.28
14295;BME280;7231;59.370;18.016;2022-08-01T12:35:32;100782.25;;;23.37;45.25
14295;BME280;7231;59.370;18.016;2022-08-01T12:38:03;100779.59;;;23.37;44.96
14295;BME280;7231;59.370;18.016;2022-08-01T12:40:33;100778.31;;;23.50;45.91
14295;BME280;7231;59.370;18.016;2022-08-01T12:43:04;100763.78;;;23.62;45.02
14295;BME280;7231;59.370;18.016;2022-08-01T12:45:36;100777.91;;;23.67;44.88
14295;BME280;7231;59.370;18.016;2022-08-01T12:48:20;100769.25;;;23.90;44.52
14295;BME280;7231;59.370;18.016;2022-08-01T12:50:48;100766.56;;;24.21;44.38
14295;BME280;7231;59.370;18.016;2022-08-01T12:53:18;100770.63;;;24.93;46.74
14295;BME280;7231;59.370;18.016;2022-08-01T12:55:49;100750.47;;;26.34;44.57
14295;BME280;7231;59.370;18.016;2022-08-01T12:58:30;100760.13;;;26.84;41.69
14295;BME280;7231;59.370;18.016;2022-08-01T13:01:03;100748.97;;;26.72;41.48
14295;BME280;7231;59.370;18.016;2022-08-01T13:03:33;100752.28;;;26.57;41.29
14295;BME280;7231;59.370;18.016;2022-08-01T13:06:10;100742.41;;;26.79;40.88
14295;BME280;7231;59.370;18.016;2022-08-01T13:08:40;100747.78;;;27.44;40.72
14295;BME280;7231;59.370;18.016;2022-08-01T13:11:09;100721.94;;;27.81;39.65
14295;BME280;7231;59.370;18.016;2022-08-01T13:13:42;100744.22;;;28.61;41.10
14295;BME280;7231;59.370;18.016;2022-08-01T13:16:11;100716.28;;;29.34;41.74